MAYO2: W. D. Mayo Lock And Dam (L&D 14)

Data processed at Fri Mar 09 2018 23:32


All information presented herein is the property of the government of the United States of America and may be revised or deleted at any time without prior notice.
Dissemination of this information without the expressed written consent of the Public Affairs Office, Tulsa District U.S. Army Corps of Engineers is strictly prohibited.
These data are gathered electronically and, as presented, have not undergone any form of quality control. These data are not guaranteed to be valid or correct.
Go to home page.
Go to station list.

Upstream stations:

Downstream station:
Previous Day
Next Day
Current Day
    
SHEF ID:       MAYO2     W. D. Mayo Lock And Dam (L&D 14)
STATION TYPE:  NAVIGATION LOCK
Normal Pool:  Bottom =   411.00, Top =   413.00

               PRECIP ELEVATION   STORAGE   TW-ELEV LOCK-ELEV    INFLOW   RELEASE  AIR-TEMP  WIND-DIRWIND-SPEED REL-HUMID SOLAR-RAD   VOLTAGE  BAT-LOAD
                   in        ft     ac-ft        ft        ft       cfs       cfs         F       deg       mph         %      W/m2      volt      volt
              Ccp-Rev   Ccp-Rev   Ccp-Rev   Ccp-Rev   Ccp-Rev  Regi-Rev  Regi-Rev   Ccp-Rev   Ccp-Rev   Ccp-Rev   Ccp-Rev   Ccp-Rev   Ccp-Rev   Ccp-Rev
(US/Central)
03/07 00:00      0.00    411.73     13770    396.27    416.39     44534     44628     40.89    320.50     10.30     47.80      0.00     13.59     13.29
03/07 01:00      0.00    411.73     13770    396.33    416.43     44638     44640     38.97    306.10      7.60     49.80      0.00     13.58     13.29
03/07 02:00      0.00    411.73     13770    396.35    416.40     44712     44640     36.41    275.30      3.50     52.81      0.00     13.58     13.29
03/07 03:00      0.00    411.74     13785    396.37    416.50     44680     44646     35.26    271.10      4.50     55.78      0.00     13.58     13.29
03/07 04:00      0.00    411.73     13770    396.43    416.47     44719     44646     34.47    279.30      3.90     58.52      0.00     13.58     13.29
03/07 05:00      0.00    411.74     13785    396.40    416.56     44687     44646     33.33    269.70      3.30     61.97      0.00     13.57     13.29
03/07 06:00      0.00    411.75     13800    396.44    416.52     44688     44659     32.34    267.90      3.10     65.03      0.00     13.58     13.29
03/07 07:00      0.00    411.74     13785    396.42    416.56     44764     44659     31.59    263.20      3.40     67.67      1.00     13.58     13.29
03/07 08:00      0.00    411.75     13800    396.41    416.53     44808     44652     33.80    272.10      4.90     65.05    113.30     13.57     13.29
03/07 09:00      0.00    411.76     13815    396.46    416.53     44781     44665     36.95    295.20      6.80     58.99    297.50     13.58     13.29
03/07 10:00      0.00    411.78     13844    396.41    416.51     44899     44689     38.55    311.10      8.60     56.22    435.90     13.58     13.29
03/07 11:00      0.00    411.78     13844    396.41    416.50     44841     44702     40.28    300.60      7.50     52.49    587.00     13.58     13.29
03/07 12:00      0.00    411.80     13874    396.44    416.50     44778     44714     42.89    288.90      7.90     48.13    731.80     13.58     13.29
03/07 13:00      0.00    411.79     13859    396.47    416.57     44672     44720     45.21    257.60      7.00     44.97    768.70     13.58     13.29
03/07 14:00      0.00    411.78     13844    396.45    416.58     44596     44708     46.76    261.90      8.10     41.80    730.40     13.57     13.29
03/07 15:00      0.00    411.77     13830    396.46    416.58     44514     44696     48.47    256.20      8.80     38.50    629.00     13.57     13.29
03/07 16:00      0.00    411.75     13800    396.47    416.59     44576     44677     50.07    305.60      6.70     35.38    486.00     13.57     13.29
03/07 17:00      0.00    411.75     13800    396.48    416.60     47403     44665     50.29    307.80      6.80     33.96    287.40     13.58     13.29
03/07 18:00      0.00    411.76     13815    396.47    416.61     47575     44671     50.02    288.90      4.70     33.31    105.60     13.58     13.29
03/07 19:00      0.00    411.75     13800    396.46    416.62     47706     45122     47.43    252.10      2.50     37.92      1.00     13.57     13.29
03/07 20:00      0.00    411.75     13800    396.48    416.63     45419     45561     43.23    222.20      1.70     47.75      0.00     13.57     13.29
03/07 21:00      0.00    411.76     13815    396.46    416.63     45176     45537     38.53    248.20      1.20     58.99      0.00     13.57     13.29
03/07 22:00      0.00    411.81     13889    397.01    416.84     43574     45129     36.84    219.40      0.80     68.71      0.00     13.56     13.29
03/07 23:00      0.00    411.75     13800    397.23    417.19     44722     44708     38.10    262.80      0.60     64.16      0.00     13.57     13.29